Portada
METAR-TAF:

METAR-TAF

Aeroports :

Plataforma petroliera

A12-cpp, Països Baixos

latitud: 55-23-57N, longitud: 3-48-37E, altitud: 33 m

Observació

L'informe es va fer fa 15 minuts, a les 14:25 UTC
Vent 7 kt del Nord-Oest, variant entre Oest i Nord
Temperatura 5°C
Humitat 81%
Pressió 997 hPa
Visibilitat 10 km o més
pluja

METAR: EHAK 261425Z AUTO 31007KT 280V350 9999 -RA FEW014/// SCT042/// 05/02 Q0997

Hora: 15:40 (14:40 UTC)


TAF: manca

Observacions i pronòstics meteorològics de més de 4000 aeroports (METAR i TAF).

Les estacions disponibles són els punts grocs i vermells al mapa.

Posi el ratolí al punt desitjat per veure el nom de l'estació.

Feu clic per veure les observacions i els pronòstics meteorològics.

Per canviar el mapa: feu clic els botons verds amb una creu de color negre per apropar; al botó verd amb un guió per allunyar la imatge; o en les fletxes verdes per a mapes adjacents.


METAR-TAF: